Time;durP1;ratioP1;P1;durP2;ratioP2;P2;SDS_P1;SDS_P2;PMS_P1;PMS_P2;Temp;Humidity;BMP_temperature;BMP_pressure;BME280_temperature;BME280_humidity;BME280_pressure;Samples;Min_cycle;Max_cycle;Signal;HPM_P1;HPM_P2
2022/01/15 00:02:17;;;;;;;235.15;29.17;;;;;;;2.45;100.00;103300.84;4998401;28;20026;-73
2022/01/15 00:04:42;;;;;;;164.95;21.85;;;;;;;2.35;100.00;103292.03;4980018;28;20036;-73
2022/01/15 00:07:07;;;;;;;182.23;23.85;;;;;;;2.39;100.00;103292.91;4992209;28;20416;-73
2022/01/15 00:09:33;;;;;;;146.20;21.75;;;;;;;2.44;100.00;103296.44;4995198;28;20373;-73
2022/01/15 00:11:58;;;;;;;158.70;21.92;;;;;;;2.41;100.00;103277.88;4995360;28;20029;-73
2022/01/15 00:14:28;;;;;;;208.07;25.83;;;;;;;2.48;100.00;103273.44;4993612;28;20092;-74
2022/01/15 00:17:04;;;;;;;185.80;25.35;;;;;;;2.43;100.00;103262.84;4976355;28;20388;-73
2022/01/15 00:19:42;;;;;;;142.13;22.02;;;;;;;2.41;100.00;103269.91;4997910;28;20026;-73
2022/01/15 00:22:13;;;;;;;266.38;31.60;;;;;;;2.35;100.00;103254.06;4980388;28;20060;-74
2022/01/15 00:24:38;;;;;;;114.18;20.05;;;;;;;2.38;100.00;103270.81;4980300;28;20759;-73
2022/01/15 00:27:04;;;;;;;111.18;17.15;;;;;;;2.47;100.00;103263.72;4976912;28;20045;-73
2022/01/15 00:29:30;;;;;;;315.65;38.08;;;;;;;2.48;100.00;103262.84;4995486;28;20364;-74
2022/01/15 00:31:56;;;;;;;222.32;26.23;;;;;;;2.53;100.00;103253.97;4992347;28;20030;-74
2022/01/15 00:34:21;;;;;;;167.77;22.98;;;;;;;2.38;100.00;103251.41;4994629;28;20502;-73
2022/01/15 00:36:46;;;;;;;144.57;20.35;;;;;;;2.27;100.00;103258.50;4995542;28;20034;-73
2022/01/15 00:39:12;;;;;;;256.02;29.00;;;;;;;2.39;100.00;103255.78;4992362;28;20076;-74
2022/01/15 00:41:37;;;;;;;193.35;23.45;;;;;;;2.20;100.00;103252.34;4977636;28;20679;-73
2022/01/15 00:44:02;;;;;;;148.27;20.42;;;;;;;2.20;100.00;103245.25;4994922;28;20447;-73
2022/01/15 00:46:28;;;;;;;199.25;22.77;;;;;;;2.24;100.00;103260.28;4995305;28;20417;-73
2022/01/15 00:48:53;;;;;;;156.70;21.23;;;;;;;2.19;100.00;103245.28;4996871;28;20057;-73
2022/01/15 00:51:18;;;;;;;148.13;19.85;;;;;;;2.08;100.00;103235.59;4985314;28;20025;-73
2022/01/15 00:53:44;;;;;;;197.43;21.73;;;;;;;2.22;100.00;103251.44;4985200;28;20033;-73
2022/01/15 00:56:10;;;;;;;272.13;29.67;;;;;;;2.13;100.00;103240.00;4999215;28;20044;-73
2022/01/15 00:58:35;;;;;;;158.57;22.38;;;;;;;2.19;100.00;103232.03;5001104;28;20507;-73
2022/01/15 01:01:00;;;;;;;224.32;26.02;;;;;;;2.30;100.00;103235.50;4998326;28;20148;-73
2022/01/15 01:03:26;;;;;;;237.50;27.52;;;;;;;2.20;100.00;103232.00;4981697;28;20056;-74
2022/01/15 01:05:51;;;;;;;247.93;25.75;;;;;;;2.23;100.00;103234.66;4983012;28;20487;-73
2022/01/15 01:08:16;;;;;;;282.90;29.38;;;;;;;2.30;100.00;103231.97;4999331;28;20026;-74
2022/01/15 01:10:59;;;;;;;276.30;28.90;;;;;;;2.20;100.00;103233.78;4997737;28;20057;-73
2022/01/15 01:20:00;;;;;;;345.17;33.22;;;;;;;2.17;100.00;103226.72;4996902;28;20065;-74
2022/01/15 01:24:20;;;;;;;221.35;25.70;;;;;;;2.27;100.00;103214.31;4994837;28;20026;-73
2022/01/15 01:29:33;;;;;;;;;;;;;;;2.08;100.00;103225.00;5000606;28;20018;-73
2022/01/15 01:32:07;;;;;;;147.90;22.33;;;;;;;2.06;100.00;103220.59;4982481;28;19956;-73
2022/01/15 01:34:35;;;;;;;214.18;24.98;;;;;;;2.05;100.00;103198.50;4996844;28;20448;-73
2022/01/15 01:37:30;;;;;;;121.53;18.83;;;;;;;2.18;100.00;103219.66;4980517;28;20049;-73
2022/01/15 01:40:14;;;;;;;;;;;;;;;2.17;100.00;103223.19;5000835;28;20216;-73
2022/01/15 01:42:43;;;;;;;178.40;20.30;;;;;;;2.02;100.00;103213.53;4987510;28;19928;-73
2022/01/15 01:45:13;;;;;;;169.50;21.75;;;;;;;1.95;100.00;103202.97;4984652;28;20064;-73
2022/01/15 01:47:41;;;;;;;234.82;28.75;;;;;;;2.09;100.00;103210.84;4995285;28;20025;-74
2022/01/15 01:50:08;;;;;;;163.10;21.30;;;;;;;2.18;100.00;103212.56;4982448;28;20671;-73
2022/01/15 01:52:33;;;;;;;148.65;24.42;;;;;;;2.04;100.00;103201.16;4997489;28;21306;-73
2022/01/15 01:54:59;;;;;;;291.90;33.75;;;;;;;2.17;100.00;103202.88;4978169;28;20041;-74
2022/01/15 01:57:24;;;;;;;176.55;23.20;;;;;;;2.04;100.00;103196.72;4983538;28;20036;-73
2022/01/15 01:59:49;;;;;;;102.05;18.10;;;;;;;1.98;100.00;103203.84;4982737;28;20037;-73
2022/01/15 02:02:15;;;;;;;132.65;18.92;;;;;;;1.98;100.00;103209.13;5002683;28;20659;-73
2022/01/15 02:04:40;;;;;;;110.20;17.92;;;;;;;1.90;100.00;103196.78;4986603;28;20038;-73
2022/01/15 02:07:05;;;;;;;133.27;20.80;;;;;;;1.82;100.00;103192.41;4997894;28;20495;-73
2022/01/15 02:09:31;;;;;;;117.68;18.30;;;;;;;2.01;100.00;103211.78;4999993;28;20415;-73
2022/01/15 02:11:57;;;;;;;187.20;24.15;;;;;;;2.03;100.00;103210.00;4986515;28;20506;-73
2022/01/15 02:14:27;;;;;;;179.40;26.70;;;;;;;2.17;100.00;103197.56;4997538;28;20038;-74
2022/01/15 02:16:52;;;;;;;160.95;21.30;;;;;;;2.19;100.00;103197.56;4996036;28;20030;-74
2022/01/15 02:19:17;;;;;;;153.15;20.63;;;;;;;1.99;100.00;103197.66;5001659;28;20459;-74
2022/01/15 02:24:14;;;;;;;138.98;20.63;;;;;;;1.98;100.00;103183.53;4993586;28;20034;-73
2022/01/15 02:26:39;;;;;;;156.07;21.13;;;;;;;2.03;100.00;103184.38;4997207;28;20080;-73
2022/01/15 02:29:07;;;;;;;197.57;23.70;;;;;;;2.09;100.00;103178.19;4979068;28;20380;-73
2022/01/15 02:31:33;;;;;;;145.70;20.48;;;;;;;1.99;100.00;103173.81;4992032;28;20365;-73
2022/01/15 02:34:00;;;;;;;127.65;19.10;;;;;;;1.95;100.00;103181.75;4997466;28;20499;-73
2022/01/15 02:36:28;;;;;;;180.45;25.15;;;;;;;2.00;100.00;103194.09;4997128;28;20099;-73
2022/01/15 02:38:54;;;;;;;109.50;16.98;;;;;;;2.22;100.00;103176.34;4995550;28;20519;-73
2022/01/15 02:41:27;;;;;;;158.23;22.98;;;;;;;2.15;100.00;103164.88;5001788;28;20034;-73
2022/01/15 02:43:53;;;;;;;237.77;28.02;;;;;;;2.21;100.00;103161.34;5006887;28;20036;-73
2022/01/15 02:48:44;;;;;;;201.00;25.65;;;;;;;2.09;100.00;103165.78;5004806;28;20026;-73
2022/01/15 02:51:11;;;;;;;257.30;33.63;;;;;;;2.10;100.00;103153.44;5002151;28;20033;-73
2022/01/15 02:53:36;;;;;;;282.08;34.85;;;;;;;2.21;100.00;103146.28;5004025;28;20029;-73
2022/01/15 02:56:02;;;;;;;231.93;27.48;;;;;;;2.18;100.00;103143.66;5002097;28;20522;-73
2022/01/15 02:58:27;;;;;;;310.05;34.03;;;;;;;2.07;100.00;103145.50;4981633;28;20496;-73
2022/01/15 03:00:53;;;;;;;293.73;33.15;;;;;;;2.22;100.00;103150.72;4999639;28;20060;-73
2022/01/15 03:03:18;;;;;;;261.25;32.85;;;;;;;2.29;100.00;103140.09;4980964;28;20033;-74
2022/01/15 03:05:44;;;;;;;206.70;30.85;;;;;;;2.32;100.00;103132.13;5001531;28;20030;-73
2022/01/15 03:08:10;;;;;;;239.57;30.67;;;;;;;2.35;100.00;103126.78;4978952;28;20021;-72
2022/01/15 03:10:35;;;;;;;195.05;26.50;;;;;;;2.14;100.00;103125.16;4982402;28;20044;-72
2022/01/15 03:13:08;;;;;;;165.93;23.17;;;;;;;2.12;100.00;103127.78;4994133;28;20757;-73
2022/01/15 03:15:33;;;;;;;135.50;21.98;;;;;;;2.15;100.00;103111.88;4997825;28;20145;-72
2022/01/15 03:17:59;;;;;;;112.70;20.00;;;;;;;2.19;100.00;103107.44;4993004;28;20120;-72
2022/01/15 03:20:24;;;;;;;152.70;23.60;;;;;;;2.14;100.00;103102.16;4998343;28;20388;-73
2022/01/15 03:22:49;;;;;;;230.30;31.63;;;;;;;2.13;100.00;103088.94;4995078;28;20034;-73
2022/01/15 03:25:15;;;;;;;185.60;28.45;;;;;;;2.33;100.00;103102.06;4997797;28;20369;-72
2022/01/15 03:27:40;;;;;;;123.45;20.33;;;;;;;2.25;100.00;103091.50;4996825;28;20112;-72
2022/01/15 03:30:08;;;;;;;178.23;26.23;;;;;;;2.18;100.00;103098.59;4998125;28;20026;-72
2022/01/15 03:32:33;;;;;;;178.80;23.48;;;;;;;2.14;100.00;103093.34;5010722;28;20041;-72
2022/01/15 03:34:59;;;;;;;208.27;28.63;;;;;;;2.11;100.00;103086.31;4978950;28;20029;-72
2022/01/15 03:37:24;;;;;;;183.13;27.05;;;;;;;2.20;100.00;103088.00;4994000;28;20037;-72
2022/01/15 03:39:50;;;;;;;166.60;23.85;;;;;;;2.42;100.00;103082.56;4994585;28;20036;-72
2022/01/15 03:42:15;;;;;;;106.18;18.25;;;;;;;2.27;100.00;103102.09;4995131;28;20698;-72
2022/01/15 03:44:42;;;;;;;119.35;20.08;;;;;;;2.09;100.00;103081.00;4992404;28;20172;-73
2022/01/15 03:47:08;;;;;;;169.77;25.73;;;;;;;2.27;100.00;103089.69;4993393;28;20038;-72
2022/01/15 03:49:33;;;;;;;199.73;27.88;;;;;;;2.13;100.00;103078.31;4976850;28;20017;-73
2022/01/15 03:51:59;;;;;;;165.60;27.65;;;;;;;2.43;100.00;103098.44;4980168;28;20044;-73
2022/01/15 03:54:24;;;;;;;212.90;38.17;;;;;;;2.31;100.00;103072.03;4977769;28;20486;-75
2022/01/15 03:56:49;;;;;;;130.98;20.77;;;;;;;2.38;100.00;103084.34;4992271;28;20353;-73
2022/01/15 03:59:15;;;;;;;118.35;18.33;;;;;;;2.32;100.00;103079.97;4994835;28;20037;-72
2022/01/15 04:01:40;;;;;;;172.80;24.77;;;;;;;2.25;100.00;103075.59;4995417;28;20075;-73
2022/01/15 04:04:05;;;;;;;177.40;25.73;;;;;;;2.24;100.00;103073.84;4995205;28;20155;-73
2022/01/15 04:06:31;;;;;;;112.72;19.77;;;;;;;2.17;100.00;103059.72;4977470;28;20040;-72
2022/01/15 04:08:56;;;;;;;139.18;22.75;;;;;;;2.20;100.00;103066.81;4992750;28;20035;-73
2022/01/15 04:11:21;;;;;;;132.88;19.65;;;;;;;2.08;100.00;103063.31;4994033;28;20030;-72
2022/01/15 04:13:47;;;;;;;118.55;19.23;;;;;;;2.24;100.00;103060.59;4997496;28;20555;-74
2022/01/15 04:16:12;;;;;;;197.55;32.10;;;;;;;2.45;100.00;103058.66;4993199;28;20065;-74
2022/01/15 04:18:40;;;;;;;130.45;20.35;;;;;;;2.22;100.00;103059.72;4980850;28;20476;-73
2022/01/15 04:21:09;;;;;;;158.77;27.25;;;;;;;2.24;100.00;103048.19;4996649;28;20060;-75
2022/01/15 04:23:34;;;;;;;72.10;15.82;;;;;;;2.30;100.00;103041.09;4996450;28;20030;-73
2022/01/15 04:25:59;;;;;;;90.78;15.18;;;;;;;2.40;100.00;103045.41;4996062;28;20041;-73
2022/01/15 04:28:25;;;;;;;117.22;17.67;;;;;;;2.30;100.00;103055.22;4998386;28;20033;-73
2022/01/15 04:30:50;;;;;;;141.07;22.52;;;;;;;2.44;100.00;103054.25;4981406;28;20104;-74
2022/01/15 04:33:16;;;;;;;138.02;19.92;;;;;;;2.21;100.00;103045.56;4985724;28;20048;-73
2022/01/15 04:35:41;;;;;;;87.40;15.02;;;;;;;2.19;100.00;103023.50;4981748;28;20033;-73
2022/01/15 04:38:10;;;;;;;124.82;16.65;;;;;;;2.46;100.00;103036.56;4993739;28;20022;-73
2022/01/15 04:40:36;;;;;;;75.78;12.32;;;;;;;2.50;100.00;103036.50;5001070;28;20428;-72
2022/01/15 04:43:01;;;;;;;127.60;21.02;;;;;;;2.29;100.00;103031.38;5006873;28;20033;-74
2022/01/15 04:45:27;;;;;;;142.00;21.05;;;;;;;2.44;100.00;103041.84;4989799;28;20068;-74
2022/01/15 04:47:52;;;;;;;135.18;20.02;;;;;;;2.27;100.00;103026.06;5005717;28;20487;-73
2022/01/15 04:50:18;;;;;;;161.18;23.40;;;;;;;2.33;100.00;103034.00;5007790;28;22635;-74
2022/01/15 04:52:44;;;;;;;132.15;19.13;;;;;;;2.31;100.00;103034.91;5001620;28;20030;-73
2022/01/15 04:55:10;;;;;;;151.38;21.70;;;;;;;2.47;100.00;103017.09;4983979;28;20402;-73
2022/01/15 04:57:36;;;;;;;136.75;21.95;;;;;;;2.43;100.00;103028.63;4980997;28;20369;-73
2022/01/15 05:00:05;;;;;;;130.82;17.48;;;;;;;2.40;100.00;103029.50;4998697;28;20531;-72
2022/01/15 05:02:31;;;;;;;144.15;20.40;;;;;;;2.55;100.00;103025.84;4996973;28;20165;-73
2022/01/15 05:04:56;;;;;;;93.70;16.17;;;;;;;2.45;100.00;103027.72;5003074;28;20033;-73
2022/01/15 05:07:22;;;;;;;125.25;19.52;;;;;;;2.53;100.00;103027.63;4998429;28;20041;-73
2022/01/15 05:09:47;;;;;;;153.00;22.05;;;;;;;2.64;100.00;103015.16;4985453;28;20554;-73
2022/01/15 05:12:27;;;;;;;75.03;12.52;;;;;;;2.52;100.00;103009.97;4981890;28;20088;-72
2022/01/15 05:14:53;;;;;;;103.10;17.45;;;;;;;2.66;100.00;103017.78;4998779;28;20034;-72
2022/01/15 05:17:18;;;;;;;156.90;24.08;;;;;;;2.72;100.00;103014.22;4980036;28;20072;-74
2022/01/15 05:19:43;;;;;;;66.05;13.82;;;;;;;2.67;100.00;103003.63;4997579;28;20491;-72
2022/01/15 05:22:09;;;;;;;117.15;20.92;;;;;;;2.63;100.00;103010.75;4996141;28;20029;-73
2022/01/15 05:24:34;;;;;;;142.55;21.30;;;;;;;2.54;100.00;102994.91;4986176;28;20033;-73
2022/01/15 05:26:59;;;;;;;92.25;13.77;;;;;;;2.57;100.00;103007.28;4978339;28;20034;-72
2022/01/15 05:29:25;;;;;;;106.43;15.52;;;;;;;2.42;100.00;102997.69;4983117;28;20534;-72
2022/01/15 05:31:50;;;;;;;73.30;13.68;;;;;;;2.60;100.00;103008.13;4998928;28;20237;-72
2022/01/15 05:34:15;;;;;;;126.68;17.73;;;;;;;2.45;100.00;103001.19;4999818;28;20030;-72
2022/01/15 05:36:41;;;;;;;128.73;19.13;;;;;;;2.45;100.00;102989.72;4997847;28;20029;-72
2022/01/15 05:39:06;;;;;;;148.85;19.33;;;;;;;2.49;100.00;102996.75;4999608;28;20056;-72
2022/01/15 05:41:32;;;;;;;126.35;20.52;;;;;;;2.54;100.00;102993.16;4982864;28;20808;-72
2022/01/15 05:44:01;;;;;;;131.40;20.80;;;;;;;2.54;100.00;102990.50;4994511;28;20051;-72
2022/01/15 05:46:30;;;;;;;158.05;22.50;;;;;;;2.66;100.00;102991.28;5001780;28;20029;-72
2022/01/15 05:48:56;;;;;;;97.20;17.55;;;;;;;2.61;100.00;102979.84;4983132;28;20025;-72
2022/01/15 05:51:22;;;;;;;130.77;19.52;;;;;;;2.34;100.00;102989.81;5014627;28;20086;-72
2022/01/15 05:53:47;;;;;;;141.30;25.33;;;;;;;2.60;100.00;102988.69;4998832;28;20029;-73
2022/01/15 05:56:12;;;;;;;109.20;18.63;;;;;;;2.48;100.00;102974.66;4999955;28;20069;-72
2022/01/15 05:58:38;;;;;;;215.48;31.17;;;;;;;2.61;100.00;102967.44;4996847;28;20028;-73
2022/01/15 06:01:03;;;;;;;133.27;19.50;;;;;;;2.60;100.00;102970.13;4992543;28;20041;-72
2022/01/15 06:03:28;;;;;;;97.70;18.23;;;;;;;2.51;100.00;102979.06;5001404;28;20329;-73
2022/01/15 06:05:53;;;;;;;171.80;24.42;;;;;;;2.80;100.00;102973.44;4995580;28;20080;-73
2022/01/15 06:08:19;;;;;;;153.35;20.20;;;;;;;2.47;100.00;102977.34;4994207;28;20056;-72
2022/01/15 06:10:44;;;;;;;129.23;17.92;;;;;;;2.57;100.00;102970.16;4999293;28;20067;-72
2022/01/15 06:13:09;;;;;;;144.10;20.30;;;;;;;2.43;100.00;102959.69;4996201;28;20108;-72
2022/01/15 06:15:35;;;;;;;96.28;15.75;;;;;;;2.47;100.00;102972.88;4996534;28;20500;-72
2022/01/15 06:18:00;;;;;;;133.65;20.10;;;;;;;2.38;100.00;102960.59;4975748;28;20374;-73
2022/01/15 06:20:25;;;;;;;108.28;18.40;;;;;;;2.46;100.00;102952.56;4984986;28;20128;-72
2022/01/15 06:22:51;;;;;;;129.77;19.80;;;;;;;2.42;100.00;102942.03;4993699;28;20145;-73
2022/01/15 06:25:16;;;;;;;94.97;16.67;;;;;;;2.52;100.00;102955.16;4994456;28;20033;-72
2022/01/15 06:27:41;;;;;;;148.27;23.70;;;;;;;2.46;100.00;102935.78;4980735;28;20121;-72
2022/01/15 06:30:07;;;;;;;164.65;25.75;;;;;;;2.54;100.00;102950.72;4980859;28;20036;-73
2022/01/15 06:32:36;;;;;;;176.75;25.75;;;;;;;2.50;100.00;102938.38;4997239;28;20029;-72
2022/01/15 06:35:06;;;;;;;113.22;17.92;;;;;;;2.43;100.00;102946.44;4995846;28;20033;-72
2022/01/15 06:37:31;;;;;;;203.23;26.98;;;;;;;2.55;100.00;102956.91;4997398;28;20038;-73
2022/01/15 06:39:56;;;;;;;168.40;22.55;;;;;;;2.44;100.00;102925.19;5001280;28;20037;-72
2022/01/15 06:42:22;;;;;;;238.25;30.38;;;;;;;2.56;100.00;102942.75;4995804;28;20427;-74
2022/01/15 06:44:47;;;;;;;192.15;25.25;;;;;;;2.37;100.00;102940.28;4994005;28;20792;-72
2022/01/15 06:47:12;;;;;;;185.50;23.92;;;;;;;2.29;100.00;102928.88;4995367;28;20069;-72
2022/01/15 06:49:38;;;;;;;149.15;20.35;;;;;;;2.45;100.00;102934.91;4998068;28;20029;-72
2022/01/15 06:52:03;;;;;;;236.50;30.23;;;;;;;2.39;100.00;102924.34;4993544;28;20029;-72
2022/01/15 06:54:29;;;;;;;123.82;17.40;;;;;;;2.38;100.00;102928.78;4995679;28;20022;-72
2022/01/15 06:56:54;;;;;;;187.02;24.45;;;;;;;2.27;100.00;102921.84;4978435;28;20443;-72
2022/01/15 06:59:19;;;;;;;186.90;22.98;;;;;;;2.27;100.00;102927.13;4981177;28;20040;-72
2022/01/15 07:01:44;;;;;;;185.85;23.10;;;;;;;2.37;100.00;102924.38;4979356;28;20381;-72
2022/01/15 07:04:10;;;;;;;113.43;17.25;;;;;;;2.31;100.00;102928.88;4980048;28;20038;-72
2022/01/15 07:06:35;;;;;;;232.10;26.83;;;;;;;2.22;100.00;102917.44;4978629;28;20069;-73
2022/01/15 07:09:00;;;;;;;99.97;16.13;;;;;;;2.23;100.00;102924.50;4993337;28;20079;-72
2022/01/15 07:11:26;;;;;;;216.73;26.02;;;;;;;2.20;100.00;102913.94;4980304;28;20053;-73
2022/01/15 07:13:51;;;;;;;144.38;18.88;;;;;;;2.19;100.00;102922.78;4995789;28;20034;-72
2022/01/15 07:16:16;;;;;;;177.18;22.35;;;;;;;2.02;100.00;102909.66;4979067;28;20042;-72
2022/01/15 07:18:42;;;;;;;136.30;20.20;;;;;;;2.15;100.00;102912.22;4988564;28;20033;-72
2022/01/15 07:21:07;;;;;;;114.53;17.27;;;;;;;2.29;100.00;102930.66;4996186;28;20108;-73
2022/01/15 07:23:33;;;;;;;175.13;22.83;;;;;;;2.24;100.00;102930.72;4978931;28;20026;-73
2022/01/15 07:25:58;;;;;;;195.00;23.50;;;;;;;2.18;100.00;102925.44;4978272;28;20051;-73
2022/01/15 07:28:25;;;;;;;111.78;16.05;;;;;;;2.25;100.00;102916.56;4979307;28;20030;-72
2022/01/15 07:30:50;;;;;;;220.02;25.90;;;;;;;2.21;100.00;102938.69;4991559;28;20026;-73
2022/01/15 07:33:15;;;;;;;153.02;21.23;;;;;;;2.21;100.00;102942.19;4995909;28;21413;-73
2022/01/15 07:35:43;;;;;;;162.10;20.48;;;;;;;2.28;100.00;102934.19;4991220;28;20065;-73
2022/01/15 07:38:08;;;;;;;135.15;19.65;;;;;;;2.31;100.00;102918.25;4990292;28;20077;-73
2022/01/15 07:40:33;;;;;;;296.75;32.38;;;;;;;2.32;100.00;102918.25;4996660;28;20029;-73
2022/01/15 07:42:58;;;;;;;357.50;40.05;;;;;;;2.28;100.00;102921.81;4994269;28;20025;-75
2022/01/15 07:45:24;;;;;;;342.90;37.92;;;;;;;2.28;100.00;102915.63;4996377;28;20136;-75
2022/01/15 07:47:49;;;;;;;469.25;43.95;;;;;;;2.45;100.00;102940.22;4991523;28;20022;-76
2022/01/15 07:50:23;;;;;;;429.23;44.15;;;;;;;2.33;100.00;102930.59;4996778;28;20065;-73
2022/01/15 07:52:48;;;;;;;293.08;30.83;;;;;;;2.41;100.00;102930.50;4998996;28;21290;-73
2022/01/15 07:55:14;;;;;;;272.38;30.30;;;;;;;2.27;100.00;102922.69;5004216;28;20025;-74
2022/01/15 07:57:43;;;;;;;342.05;35.70;;;;;;;2.28;100.00;102923.59;4999029;28;20033;-74
2022/01/15 08:00:13;;;;;;;165.07;21.20;;;;;;;2.19;100.00;102921.91;4997333;28;20398;-73
2022/01/15 08:02:38;;;;;;;283.98;32.42;;;;;;;2.37;100.00;102919.06;4983416;28;20121;-74
2022/01/15 08:05:05;;;;;;;189.38;25.45;;;;;;;2.36;100.00;102919.97;4983897;28;20098;-74
2022/01/15 08:07:30;;;;;;;248.82;24.73;;;;;;;2.36;100.00;102919.97;4999220;28;20029;-73
2022/01/15 08:09:55;;;;;;;231.25;26.48;;;;;;;2.18;100.00;102913.06;4985752;28;20317;-74
2022/01/15 08:12:22;;;;;;;218.90;24.98;;;;;;;2.28;100.00;102921.81;4984199;28;20196;-73
2022/01/15 08:14:47;;;;;;;196.00;23.48;;;;;;;2.14;100.00;102908.69;5000953;28;20033;-73
2022/01/15 08:17:12;;;;;;;122.82;17.90;;;;;;;2.17;100.00;102907.78;4984325;28;20034;-73
2022/01/15 08:19:38;;;;;;;269.50;29.02;;;;;;;2.08;100.00;102916.72;4983550;28;20033;-74
2022/01/15 08:22:03;;;;;;;85.85;14.75;;;;;;;2.17;100.00;102906.00;4981978;28;20034;-73
2022/01/15 08:24:28;;;;;;;225.25;25.10;;;;;;;2.08;100.00;102914.91;5000234;28;20030;-74
2022/01/15 08:26:54;;;;;;;174.70;21.92;;;;;;;1.98;100.00;102907.06;4988678;28;20472;-74
2022/01/15 08:29:19;;;;;;;144.25;18.65;;;;;;;2.00;100.00;102915.88;4982958;28;20030;-74
2022/01/15 08:31:44;;;;;;;139.80;20.23;;;;;;;2.08;100.00;102906.97;5002418;28;20030;-77
2022/01/15 08:34:10;;;;;;;306.48;32.47;;;;;;;2.05;100.00;102914.94;4983778;28;20036;-75
2022/01/15 08:36:38;;;;;;;227.25;24.15;;;;;;;1.97;100.00;102907.97;4988292;28;20543;-74
2022/01/15 08:39:05;;;;;;;420.83;41.38;;;;;;;2.33;100.00;102916.47;5003410;28;20037;-74
2022/01/15 08:41:30;;;;;;;159.40;20.35;;;;;;;2.01;100.00;102922.94;4989850;28;20029;-75
2022/01/15 08:43:56;;;;;;;333.98;34.78;;;;;;;2.00;100.00;102900.84;4982650;28;20044;-74
2022/01/15 08:46:23;;;;;;;183.40;22.08;;;;;;;1.92;100.00;102900.06;4999003;28;20480;-73
2022/01/15 08:48:49;;;;;;;172.85;20.15;;;;;;;2.01;100.00;102909.69;4996014;28;20400;-74
2022/01/15 08:51:14;;;;;;;278.80;27.13;;;;;;;1.80;100.00;102916.94;5000044;28;20377;-74
2022/01/15 08:53:39;;;;;;;242.85;27.70;;;;;;;1.90;100.00;102917.75;4999425;28;20096;-73
2022/01/15 08:56:05;;;;;;;209.10;22.95;;;;;;;1.93;100.00;102905.34;4983897;28;20383;-73
2022/01/15 08:58:30;;;;;;;240.57;27.27;;;;;;;1.93;100.00;102912.41;5000770;28;20418;-73
2022/01/15 09:00:57;;;;;;;98.45;14.63;;;;;;;2.02;100.00;102917.63;4989420;28;20028;-72
2022/01/15 09:03:23;;;;;;;173.60;20.15;;;;;;;1.98;100.00;102918.56;5003647;28;20038;-76
2022/01/15 09:05:50;;;;;;;214.48;23.67;;;;;;;1.86;100.00;102919.50;5001205;28;20261;-73
2022/01/15 09:08:17;;;;;;;309.65;33.47;;;;;;;1.74;100.00;102903.72;4986406;28;20323;-75
2022/01/15 09:10:42;;;;;;;124.93;19.23;;;;;;;1.93;100.00;102912.41;5002695;28;20491;-75
2022/01/15 09:13:11;;;;;;;245.70;29.48;;;;;;;2.02;100.00;102909.66;5004738;28;20113;-77
2022/01/15 09:15:37;;;;;;;352.38;45.33;;;;;;;2.04;100.00;102899.94;5004780;28;20037;-71
2022/01/15 09:18:02;;;;;;;187.02;28.67;;;;;;;1.89;100.00;102908.91;5006080;28;20021;-74
2022/01/15 09:20:28;;;;;;;110.68;17.67;;;;;;;1.79;100.00;102912.53;5006347;28;20061;-74
2022/01/15 09:22:53;;;;;;;120.05;19.08;;;;;;;1.74;100.00;102925.78;5000497;28;20068;-73
2022/01/15 09:25:19;;;;;;;118.18;18.02;;;;;;;1.61;100.00;102916.19;5000570;28;20036;-71
2022/01/15 09:30:28;;;;;;;79.47;13.98;;;;;;;1.60;100.00;102909.97;5003828;28;20052;-72
2022/01/15 09:32:55;;;;;;;84.38;15.15;;;;;;;1.50;100.00;102911.81;5000526;28;20404;-73
2022/01/15 09:35:27;;;;;;;223.95;26.40;;;;;;;1.77;100.00;102906.34;5006796;28;20038;-75
2022/01/15 09:37:53;;;;;;;351.38;40.33;;;;;;;1.80;100.00;102904.56;5004510;28;20061;-77
2022/01/15 09:40:20;;;;;;;235.25;27.30;;;;;;;1.76;100.00;102901.94;5001179;28;20536;-73
2022/01/15 09:42:47;;;;;;;384.02;40.78;;;;;;;1.67;100.00;102883.47;5005142;28;20103;-74
2022/01/15 09:45:13;;;;;;;233.20;27.42;;;;;;;1.49;100.00;102890.66;5003889;28;20030;-74
2022/01/15 09:47:39;;;;;;;136.95;20.38;;;;;;;1.52;100.00;102889.75;5006140;28;20037;-73
2022/01/15 09:50:10;;;;;;;91.53;16.33;;;;;;;1.42;100.00;102886.28;5001922;28;20025;-73
2022/01/15 09:52:36;;;;;;;222.15;26.63;;;;;;;1.38;100.00;102890.72;5001471;28;20033;-73
2022/01/15 09:55:05;;;;;;;207.57;23.83;;;;;;;1.36;100.00;102887.22;5004222;28;20038;-74
2022/01/15 09:57:31;;;;;;;194.13;22.70;;;;;;;1.39;100.00;102886.31;5003101;28;20176;-73
2022/01/15 09:59:56;;;;;;;176.85;22.73;;;;;;;1.53;100.00;102886.22;5004924;28;20021;-74
2022/01/15 10:02:21;;;;;;;217.90;30.40;;;;;;;1.56;100.00;102887.09;5005871;28;20117;-73
2022/01/15 10:04:47;;;;;;;221.07;29.52;;;;;;;1.40;100.00;102894.25;5008286;28;20026;-74
2022/01/15 10:07:16;;;;;;;108.20;18.38;;;;;;;1.42;100.00;102883.66;5002709;28;20501;-74
2022/01/15 10:09:43;;;;;;;65.65;15.18;;;;;;;1.39;100.00;102889.84;5004331;28;20026;-72
2022/01/15 10:12:09;;;;;;;122.88;19.30;;;;;;;1.31;100.00;102883.72;5008539;28;20032;-73
2022/01/15 10:14:40;;;;;;;150.30;21.92;;;;;;;1.24;100.00;102885.53;5002650;28;20061;-72
2022/01/15 10:17:24;;;;;;;129.13;18.67;;;;;;;1.11;100.00;102883.81;5001706;28;20030;-72
2022/01/15 10:19:50;;;;;;;289.13;35.07;;;;;;;1.35;100.00;102898.69;5002414;28;20378;-73
2022/01/15 10:22:18;;;;;;;256.10;30.50;;;;;;;1.39;100.00;102900.44;5003916;28;20022;-73
2022/01/15 10:24:56;;;;;;;232.18;30.85;;;;;;;1.50;100.00;102901.22;5004722;28;20026;-73
2022/01/15 10:27:30;;;;;;;275.35;39.30;;;;;;;1.35;100.00;102890.75;4999822;28;20129;-75
2022/01/15 10:30:07;;;;;;;537.22;56.33;;;;;;;1.40;100.00;102899.56;5002553;28;20028;-74
2022/01/15 10:32:41;;;;;;;343.90;41.10;;;;;;;1.29;100.00;102891.69;5000855;28;20559;-73
2022/01/15 10:35:15;;;;;;;282.42;36.28;;;;;;;1.03;100.00;102894.44;5005052;28;20029;-73
2022/01/15 10:37:50;;;;;;;308.67;34.70;;;;;;;1.06;100.00;102897.09;5001027;28;20088;-73
2022/01/15 10:40:16;;;;;;;179.50;24.58;;;;;;;0.99;100.00;102892.69;5004587;28;20534;-72
2022/01/15 10:42:49;;;;;;;390.40;41.80;;;;;;;1.29;100.00;102888.13;5002002;28;20053;-72
2022/01/15 10:45:16;;;;;;;208.88;25.52;;;;;;;0.96;100.00;102895.34;4986361;28;20036;-73
2022/01/15 10:47:49;;;;;;;242.07;28.80;;;;;;;0.96;100.00;102882.13;5000697;28;20121;-72
2022/01/15 10:50:22;;;;;;;110.60;20.05;;;;;;;0.93;100.00;102876.88;5003457;28;20595;-72
2022/01/15 10:52:48;;;;;;;156.00;24.13;;;;;;;0.77;100.00;102857.53;5003293;28;20034;-73
2022/01/15 10:55:16;;;;;;;225.30;29.52;;;;;;;1.10;100.00;102875.00;5002268;28;20034;-73
2022/01/15 10:57:54;;;;;;;142.77;22.10;;;;;;;1.07;100.00;102872.38;5002517;28;20026;-73
2022/01/15 11:00:27;;;;;;;305.98;35.75;;;;;;;1.16;100.00;102853.81;4981406;28;20049;-73
2022/01/15 11:03:02;;;;;;;286.50;36.25;;;;;;;1.20;100.00;102860.81;5003734;28;20080;-72
2022/01/15 11:05:32;;;;;;;175.95;24.20;;;;;;;1.03;100.00;102862.69;4997850;28;20033;-72
2022/01/15 11:08:07;;;;;;;182.65;25.10;;;;;;;1.11;100.00;102874.13;4997924;28;20022;-73
2022/01/15 11:10:42;;;;;;;282.15;30.95;;;;;;;1.22;100.00;102862.59;4996480;28;20029;-72
2022/01/15 11:13:11;;;;;;;282.23;32.85;;;;;;;1.07;100.00;102868.84;4995654;28;20443;-73
2022/01/15 11:15:37;;;;;;;261.85;32.38;;;;;;;1.10;100.00;102856.50;5002947;28;20033;-72
2022/01/15 11:18:03;;;;;;;192.73;25.23;;;;;;;1.04;100.00;102853.88;4987499;28;20207;-71
2022/01/15 11:20:31;;;;;;;293.75;32.88;;;;;;;1.14;100.00;102857.34;5000758;28;20476;-70